• Join FlightAware (Why Join?)
  • Login
  • US Flag 
04:00PM EST


 

Airport Tracker/Info


-or-


 

Live Flight TrackerFlight Track Log ✈ ASQ4209 ✈ 09-Jul-2013 ✈ KIAH - KBTR

Flight Track Log - Related Links

Times and Time Zones

All times are in EDT time to prevent confusion due to time zone crossing. See the ASQ4209 flight status page for this flight to view local times or setup timezone preferences in your user account.

Time Position Orientation Groundspeed Altitude Reporting Facility
EDT Latitude Longitude Course Direction KTS MPH feet Rate Location/Type
08:04PM 29.9592 -95.3392 90° East 161 185 1,000  Level Houston Center
08:05PM 29.9431 -95.2783 107° East 238 274 2,300 1,380 Climbing Houston Center
08:06PM 29.9344 -95.2272 101° East 235 270 3,500 1,440 Climbing Houston Center
08:07PM 29.9339 -95.1442 90° East 258 297 4,900 720 Climbing Houston Center
08:08PM 29.9834 -94.9181 90° East  Level FlightAware Approximate
08:08PM 29.9414 -95.0325 86° East 273 314 5,200  Level Houston Center
08:09PM 29.9834 -94.8143 90° East  Level FlightAware Approximate
08:09PM 29.9464 -94.9683 85° East 274 315 6,200  Level Houston Center
08:10PM 29.9533 -94.8808 85° East 273 314 8,100 1,320 Climbing Houston Center
08:11PM 29.9606 -94.7906 85° East 279 321 9,000 960 Climbing Houston Center
08:12PM 29.9694 -94.6772 85° East 294 338 10,100 1,080 Climbing Houston Center
08:13PM 29.9767 -94.5739 85° East 313 360 11,300 960 Climbing Houston Center
08:14PM 29.9842 -94.4719 85° East 336 387 12,100 840 Climbing Houston Center
08:15PM 29.9933 -94.3567 85° East 355 409 13,100 1,260 Climbing Houston Center
08:16PM 30.0064 -94.2178 84° East 363 418 14,800 1,500 Climbing Houston Center
08:17PM 30.0203 -94.1047 82° East 359 413 16,200 1,260 Climbing Houston Center
08:18PM 30.0347 -93.9933 81° East 354 407 17,500 1,200 Climbing Houston Center
08:19PM 30.0489 -93.8819 82° East 352 405 18,700 1,140 Climbing Houston Center
08:20PM 30.0619 -93.7694 82° East 355 409 19,900 960 Climbing Houston Center
08:21PM 30.0750 -93.6542 83° East 363 418 20,800 480 Climbing Houston Center
08:22PM 30.0931 -93.5089 82° East 387 445 21,000 60 Climbing Houston Center
08:23PM 30.1069 -93.3808 83° East 407 468 21,000  Level Houston Center
08:24PM 30.1239 -93.2481 82° East 424 488 21,000 -60 Level Houston Center
08:25PM 30.1392 -93.1150 82° East 423 487 20,900  Descending Houston Center
08:26PM 30.1636 -92.9850 78° East 419 482 21,000  Climbing Houston Center
08:27PM 30.1950 -92.8292 77° East 417 480 21,000  Level Houston Center
08:28PM 30.2200 -92.6969 78° East 422 486 21,000  Level Houston Center
08:29PM 30.2467 -92.5642 77° East 426 490 21,000 -420 Level Houston Center
08:30PM 30.2725 -92.4314 77° East 426 490 20,200 -1,500 Descending Houston Center
08:32PM 30.2975 -92.2989 78° East 409 471 18,000 -1,620 Descending Houston Center
08:33PM 30.3206 -92.1753 78° East 397 457 16,900 -1,380 Descending Houston Center
08:34PM 30.3436 -92.0542 78° East 389 448 15,200 -2,040 Descending Houston Center
08:35PM 30.3725 -91.9064 77° East 394 453 12,800 -2,040 Descending Houston Center
08:36PM 30.3939 -91.7883 78° East 383 441 11,100 -1,620 Descending Houston Center
08:37PM 30.4306 -91.6839 68° East 368 423 9,600 -1,320 Descending Houston Center
08:38PM 30.4956 -91.6117 44° Northeast 342 394 8,400 -1,500 Descending Houston Center
08:39PM 30.5356 -91.5486 54° Northeast 308 354 6,600 -2,040 Descending Houston Center
08:40PM 30.5308 -91.4747 94° East 256 295 4,300 -1,560 Descending Houston Center
08:41PM 30.5325 -91.3833 89° East 249 287 3,400 -900 Descending Houston Center